sensor_id;sensor_type;location;lat;lon;timestamp;P1;durP1;ratioP1;P2;durP2;ratioP2
78740;SDS011;68062;48.726;9.370;2023-12-20T00:01:39;4.57;;;3.30;;
78740;SDS011;68062;48.726;9.370;2023-12-20T00:04:08;3.50;;;3.30;;
78740;SDS011;68062;48.726;9.370;2023-12-20T00:06:36;4.13;;;3.93;;
78740;SDS011;68062;48.726;9.370;2023-12-20T00:09:04;4.90;;;3.47;;
78740;SDS011;68062;48.726;9.370;2023-12-20T00:11:33;5.67;;;3.97;;
78740;SDS011;68062;48.726;9.370;2023-12-20T00:14:00;3.80;;;2.60;;
78740;SDS011;68062;48.726;9.370;2023-12-20T00:16:28;3.07;;;2.57;;
78740;SDS011;68062;48.726;9.370;2023-12-20T00:18:58;4.43;;;2.43;;
78740;SDS011;68062;48.726;9.370;2023-12-20T00:21:28;3.43;;;2.40;;
78740;SDS011;68062;48.726;9.370;2023-12-20T00:23:56;3.63;;;2.00;;
78740;SDS011;68062;48.726;9.370;2023-12-20T00:26:24;2.40;;;2.00;;
78740;SDS011;68062;48.726;9.370;2023-12-20T00:28:52;2.43;;;2.20;;
78740;SDS011;68062;48.726;9.370;2023-12-20T00:31:20;2.70;;;2.30;;
78740;SDS011;68062;48.726;9.370;2023-12-20T00:33:48;2.77;;;2.50;;
78740;SDS011;68062;48.726;9.370;2023-12-20T00:36:16;2.63;;;2.40;;
78740;SDS011;68062;48.726;9.370;2023-12-20T00:38:45;3.80;;;2.10;;
78740;SDS011;68062;48.726;9.370;2023-12-20T00:41:14;4.73;;;2.07;;
78740;SDS011;68062;48.726;9.370;2023-12-20T00:43:42;1.47;;;1.37;;
78740;SDS011;68062;48.726;9.370;2023-12-20T00:46:10;1.60;;;1.20;;
78740;SDS011;68062;48.726;9.370;2023-12-20T00:48:38;1.87;;;1.40;;
78740;SDS011;68062;48.726;9.370;2023-12-20T00:51:08;1.93;;;1.80;;
78740;SDS011;68062;48.726;9.370;2023-12-20T00:53:36;1.90;;;1.77;;
78740;SDS011;68062;48.726;9.370;2023-12-20T00:56:06;1.53;;;1.47;;
78740;SDS011;68062;48.726;9.370;2023-12-20T00:58:35;1.60;;;1.50;;
78740;SDS011;68062;48.726;9.370;2023-12-20T01:01:03;2.10;;;1.40;;
78740;SDS011;68062;48.726;9.370;2023-12-20T01:03:31;1.87;;;1.77;;
78740;SDS011;68062;48.726;9.370;2023-12-20T01:05:59;1.00;;;0.90;;
78740;SDS011;68062;48.726;9.370;2023-12-20T01:08:27;1.53;;;1.47;;
78740;SDS011;68062;48.726;9.370;2023-12-20T01:10:55;1.30;;;1.20;;
78740;SDS011;68062;48.726;9.370;2023-12-20T01:13:24;1.60;;;1.20;;
78740;SDS011;68062;48.726;9.370;2023-12-20T01:15:52;1.90;;;1.50;;
78740;SDS011;68062;48.726;9.370;2023-12-20T01:18:20;2.27;;;1.43;;
78740;SDS011;68062;48.726;9.370;2023-12-20T01:20:48;1.80;;;1.60;;
78740;SDS011;68062;48.726;9.370;2023-12-20T01:23:16;7.67;;;1.90;;
78740;SDS011;68062;48.726;9.370;2023-12-20T01:25:44;2.53;;;1.47;;
78740;SDS011;68062;48.726;9.370;2023-12-20T01:28:12;3.23;;;1.37;;
78740;SDS011;68062;48.726;9.370;2023-12-20T01:30:41;2.20;;;1.70;;
78740;SDS011;68062;48.726;9.370;2023-12-20T01:33:10;1.73;;;1.37;;
78740;SDS011;68062;48.726;9.370;2023-12-20T01:35:38;1.67;;;1.53;;
78740;SDS011;68062;48.726;9.370;2023-12-20T01:38:05;1.47;;;1.40;;
78740;SDS011;68062;48.726;9.370;2023-12-20T01:40:33;1.73;;;1.50;;
78740;SDS011;68062;48.726;9.370;2023-12-20T01:43:02;3.17;;;2.33;;
78740;SDS011;68062;48.726;9.370;2023-12-20T01:45:35;3.23;;;1.97;;
78740;SDS011;68062;48.726;9.370;2023-12-20T01:48:05;1.87;;;1.67;;
78740;SDS011;68062;48.726;9.370;2023-12-20T01:50:35;1.97;;;1.70;;
78740;SDS011;68062;48.726;9.370;2023-12-20T01:53:04;1.73;;;1.37;;
78740;SDS011;68062;48.726;9.370;2023-12-20T01:55:36;2.30;;;1.67;;
78740;SDS011;68062;48.726;9.370;2023-12-20T01:58:06;2.97;;;1.57;;
78740;SDS011;68062;48.726;9.370;2023-12-20T02:00:36;2.23;;;2.03;;
78740;SDS011;68062;48.726;9.370;2023-12-20T02:03:06;2.90;;;1.70;;
78740;SDS011;68062;48.726;9.370;2023-12-20T02:05:35;2.63;;;1.90;;
78740;SDS011;68062;48.726;9.370;2023-12-20T02:08:03;2.57;;;1.60;;
78740;SDS011;68062;48.726;9.370;2023-12-20T02:10:32;1.70;;;1.60;;
78740;SDS011;68062;48.726;9.370;2023-12-20T02:13:02;1.77;;;1.70;;
78740;SDS011;68062;48.726;9.370;2023-12-20T02:15:30;1.73;;;1.30;;
78740;SDS011;68062;48.726;9.370;2023-12-20T02:17:58;3.17;;;1.83;;
78740;SDS011;68062;48.726;9.370;2023-12-20T02:20:27;2.20;;;1.83;;
78740;SDS011;68062;48.726;9.370;2023-12-20T02:22:57;1.63;;;1.40;;
78740;SDS011;68062;48.726;9.370;2023-12-20T02:25:25;1.97;;;1.50;;
78740;SDS011;68062;48.726;9.370;2023-12-20T02:27:53;3.03;;;1.67;;
78740;SDS011;68062;48.726;9.370;2023-12-20T02:30:21;2.23;;;1.40;;
78740;SDS011;68062;48.726;9.370;2023-12-20T02:32:49;2.97;;;1.40;;
78740;SDS011;68062;48.726;9.370;2023-12-20T02:35:19;2.30;;;1.30;;
78740;SDS011;68062;48.726;9.370;2023-12-20T02:37:47;1.60;;;1.50;;
78740;SDS011;68062;48.726;9.370;2023-12-20T02:40:16;1.50;;;1.00;;
78740;SDS011;68062;48.726;9.370;2023-12-20T02:42:44;3.97;;;1.40;;
78740;SDS011;68062;48.726;9.370;2023-12-20T02:45:12;1.10;;;0.93;;
78740;SDS011;68062;48.726;9.370;2023-12-20T02:47:40;4.33;;;1.30;;
78740;SDS011;68062;48.726;9.370;2023-12-20T02:50:07;1.17;;;1.10;;
78740;SDS011;68062;48.726;9.370;2023-12-20T02:52:36;2.40;;;0.87;;
78740;SDS011;68062;48.726;9.370;2023-12-20T02:55:04;1.70;;;1.43;;
78740;SDS011;68062;48.726;9.370;2023-12-20T02:57:34;1.33;;;1.00;;
78740;SDS011;68062;48.726;9.370;2023-12-20T03:00:03;1.20;;;1.00;;
78740;SDS011;68062;48.726;9.370;2023-12-20T03:02:31;1.93;;;1.50;;
78740;SDS011;68062;48.726;9.370;2023-12-20T03:04:59;2.30;;;1.10;;
78740;SDS011;68062;48.726;9.370;2023-12-20T03:07:27;1.73;;;1.13;;
78740;SDS011;68062;48.726;9.370;2023-12-20T03:09:56;1.50;;;1.20;;
78740;SDS011;68062;48.726;9.370;2023-12-20T03:12:45;1.30;;;1.10;;
78740;SDS011;68062;48.726;9.370;2023-12-20T03:15:13;1.40;;;1.30;;
78740;SDS011;68062;48.726;9.370;2023-12-20T03:17:41;1.13;;;1.00;;
78740;SDS011;68062;48.726;9.370;2023-12-20T03:20:09;1.17;;;0.90;;
78740;SDS011;68062;48.726;9.370;2023-12-20T03:22:37;1.23;;;0.90;;
78740;SDS011;68062;48.726;9.370;2023-12-20T03:25:06;1.50;;;1.10;;
78740;SDS011;68062;48.726;9.370;2023-12-20T03:27:36;1.00;;;0.90;;
78740;SDS011;68062;48.726;9.370;2023-12-20T03:30:07;1.70;;;1.20;;
78740;SDS011;68062;48.726;9.370;2023-12-20T03:32:36;1.30;;;1.20;;
78740;SDS011;68062;48.726;9.370;2023-12-20T03:35:06;1.13;;;1.10;;
78740;SDS011;68062;48.726;9.370;2023-12-20T03:37:34;1.17;;;1.13;;
78740;SDS011;68062;48.726;9.370;2023-12-20T03:40:02;1.57;;;1.20;;
78740;SDS011;68062;48.726;9.370;2023-12-20T03:42:31;2.33;;;1.57;;
78740;SDS011;68062;48.726;9.370;2023-12-20T03:44:59;1.37;;;1.30;;
78740;SDS011;68062;48.726;9.370;2023-12-20T03:47:29;1.20;;;1.10;;
78740;SDS011;68062;48.726;9.370;2023-12-20T03:49:57;2.60;;;1.33;;
78740;SDS011;68062;48.726;9.370;2023-12-20T03:52:25;1.70;;;1.60;;
78740;SDS011;68062;48.726;9.370;2023-12-20T03:54:53;1.40;;;1.30;;
78740;SDS011;68062;48.726;9.370;2023-12-20T03:57:21;1.50;;;1.40;;
78740;SDS011;68062;48.726;9.370;2023-12-20T03:59:49;1.50;;;1.33;;
78740;SDS011;68062;48.726;9.370;2023-12-20T04:02:17;1.33;;;1.30;;
78740;SDS011;68062;48.726;9.370;2023-12-20T04:04:46;1.80;;;1.50;;
78740;SDS011;68062;48.726;9.370;2023-12-20T04:07:14;1.73;;;1.63;;
78740;SDS011;68062;48.726;9.370;2023-12-20T04:09:42;1.97;;;1.70;;
78740;SDS011;68062;48.726;9.370;2023-12-20T04:12:10;1.67;;;1.57;;
78740;SDS011;68062;48.726;9.370;2023-12-20T04:14:38;2.40;;;1.73;;
78740;SDS011;68062;48.726;9.370;2023-12-20T04:17:06;2.00;;;1.77;;
78740;SDS011;68062;48.726;9.370;2023-12-20T04:19:34;1.83;;;1.73;;
78740;SDS011;68062;48.726;9.370;2023-12-20T04:22:03;3.93;;;1.70;;
78740;SDS011;68062;48.726;9.370;2023-12-20T04:24:31;2.77;;;2.00;;
78740;SDS011;68062;48.726;9.370;2023-12-20T04:26:59;3.20;;;1.90;;
78740;SDS011;68062;48.726;9.370;2023-12-20T04:29:27;2.70;;;1.80;;
78740;SDS011;68062;48.726;9.370;2023-12-20T04:31:55;3.70;;;2.40;;
78740;SDS011;68062;48.726;9.370;2023-12-20T04:34:23;2.30;;;2.10;;
78740;SDS011;68062;48.726;9.370;2023-12-20T04:36:51;1.80;;;1.73;;
78740;SDS011;68062;48.726;9.370;2023-12-20T04:39:20;1.63;;;1.20;;
78740;SDS011;68062;48.726;9.370;2023-12-20T04:41:48;2.30;;;1.30;;
78740;SDS011;68062;48.726;9.370;2023-12-20T04:44:16;2.07;;;1.60;;
78740;SDS011;68062;48.726;9.370;2023-12-20T04:46:44;1.87;;;1.60;;
78740;SDS011;68062;48.726;9.370;2023-12-20T04:49:12;2.60;;;2.40;;
78740;SDS011;68062;48.726;9.370;2023-12-20T04:51:40;2.63;;;1.53;;
78740;SDS011;68062;48.726;9.370;2023-12-20T04:54:08;2.17;;;2.03;;
78740;SDS011;68062;48.726;9.370;2023-12-20T04:56:38;1.87;;;1.40;;
78740;SDS011;68062;48.726;9.370;2023-12-20T04:59:06;1.90;;;1.63;;
78740;SDS011;68062;48.726;9.370;2023-12-20T05:01:34;2.30;;;1.40;;
78740;SDS011;68062;48.726;9.370;2023-12-20T05:04:03;3.10;;;1.97;;
78740;SDS011;68062;48.726;9.370;2023-12-20T05:06:31;2.60;;;1.90;;
78740;SDS011;68062;48.726;9.370;2023-12-20T05:08:59;2.67;;;1.67;;
78740;SDS011;68062;48.726;9.370;2023-12-20T05:11:27;1.97;;;1.90;;
78740;SDS011;68062;48.726;9.370;2023-12-20T05:13:57;5.93;;;1.87;;
78740;SDS011;68062;48.726;9.370;2023-12-20T05:16:24;2.70;;;1.80;;
78740;SDS011;68062;48.726;9.370;2023-12-20T05:18:52;2.97;;;1.80;;
78740;SDS011;68062;48.726;9.370;2023-12-20T05:21:21;3.03;;;1.80;;
78740;SDS011;68062;48.726;9.370;2023-12-20T05:23:49;2.23;;;1.67;;
78740;SDS011;68062;48.726;9.370;2023-12-20T05:26:17;2.50;;;1.70;;
78740;SDS011;68062;48.726;9.370;2023-12-20T05:28:45;2.10;;;1.63;;
78740;SDS011;68062;48.726;9.370;2023-12-20T05:31:14;1.97;;;1.87;;
78740;SDS011;68062;48.726;9.370;2023-12-20T05:33:42;3.00;;;1.63;;
78740;SDS011;68062;48.726;9.370;2023-12-20T05:36:11;2.70;;;1.90;;
78740;SDS011;68062;48.726;9.370;2023-12-20T05:38:40;2.07;;;1.50;;
78740;SDS011;68062;48.726;9.370;2023-12-20T05:41:11;2.00;;;1.90;;
78740;SDS011;68062;48.726;9.370;2023-12-20T05:43:39;3.70;;;2.60;;
78740;SDS011;68062;48.726;9.370;2023-12-20T05:46:09;2.60;;;1.97;;
78740;SDS011;68062;48.726;9.370;2023-12-20T05:48:39;2.63;;;2.17;;
78740;SDS011;68062;48.726;9.370;2023-12-20T05:51:07;2.63;;;2.00;;
78740;SDS011;68062;48.726;9.370;2023-12-20T05:53:38;1.97;;;1.87;;
78740;SDS011;68062;48.726;9.370;2023-12-20T05:56:06;2.43;;;1.90;;
78740;SDS011;68062;48.726;9.370;2023-12-20T05:58:34;3.33;;;2.77;;
78740;SDS011;68062;48.726;9.370;2023-12-20T06:01:03;2.50;;;2.10;;
78740;SDS011;68062;48.726;9.370;2023-12-20T06:03:32;3.00;;;2.47;;
78740;SDS011;68062;48.726;9.370;2023-12-20T06:06:05;4.43;;;4.13;;
78740;SDS011;68062;48.726;9.370;2023-12-20T06:08:42;7.33;;;5.77;;
78740;SDS011;68062;48.726;9.370;2023-12-20T06:11:11;9.27;;;8.77;;
78740;SDS011;68062;48.726;9.370;2023-12-20T06:13:39;3.77;;;3.07;;
78740;SDS011;68062;48.726;9.370;2023-12-20T06:16:07;9.73;;;5.17;;
78740;SDS011;68062;48.726;9.370;2023-12-20T06:18:35;8.07;;;6.70;;
78740;SDS011;68062;48.726;9.370;2023-12-20T06:21:05;2.20;;;2.00;;
78740;SDS011;68062;48.726;9.370;2023-12-20T06:23:34;4.43;;;2.93;;
78740;SDS011;68062;48.726;9.370;2023-12-20T06:26:02;4.00;;;2.53;;
78740;SDS011;68062;48.726;9.370;2023-12-20T06:28:30;23.20;;;10.80;;
78740;SDS011;68062;48.726;9.370;2023-12-20T06:30:58;34.53;;;19.93;;
78740;SDS011;68062;48.726;9.370;2023-12-20T06:33:27;26.17;;;15.70;;
78740;SDS011;68062;48.726;9.370;2023-12-20T06:35:56;20.80;;;14.00;;
78740;SDS011;68062;48.726;9.370;2023-12-20T06:38:25;18.33;;;10.93;;
78740;SDS011;68062;48.726;9.370;2023-12-20T06:40:53;8.77;;;6.60;;
78740;SDS011;68062;48.726;9.370;2023-12-20T06:43:24;1.73;;;1.57;;
78740;SDS011;68062;48.726;9.370;2023-12-20T06:46:11;3.20;;;2.63;;
78740;SDS011;68062;48.726;9.370;2023-12-20T06:48:40;3.67;;;2.17;;
78740;SDS011;68062;48.726;9.370;2023-12-20T06:51:10;2.17;;;2.03;;
78740;SDS011;68062;48.726;9.370;2023-12-20T06:53:41;2.27;;;1.60;;
78740;SDS011;68062;48.726;9.370;2023-12-20T06:56:09;2.53;;;2.00;;
78740;SDS011;68062;48.726;9.370;2023-12-20T06:58:41;7.37;;;6.67;;
78740;SDS011;68062;48.726;9.370;2023-12-20T07:01:10;6.50;;;6.20;;
78740;SDS011;68062;48.726;9.370;2023-12-20T07:03:39;7.47;;;5.30;;
78740;SDS011;68062;48.726;9.370;2023-12-20T07:06:07;12.13;;;3.13;;
78740;SDS011;68062;48.726;9.370;2023-12-20T07:08:36;3.30;;;3.10;;
78740;SDS011;68062;48.726;9.370;2023-12-20T07:11:09;10.27;;;5.03;;
78740;SDS011;68062;48.726;9.370;2023-12-20T07:13:38;2.77;;;1.23;;
78740;SDS011;68062;48.726;9.370;2023-12-20T07:16:06;6.93;;;4.63;;
78740;SDS011;68062;48.726;9.370;2023-12-20T07:18:33;3.33;;;1.10;;
78740;SDS011;68062;48.726;9.370;2023-12-20T07:21:01;1.97;;;1.60;;
78740;SDS011;68062;48.726;9.370;2023-12-20T07:23:30;1.13;;;1.10;;
78740;SDS011;68062;48.726;9.370;2023-12-20T07:25:58;2.90;;;0.97;;
78740;SDS011;68062;48.726;9.370;2023-12-20T07:28:27;2.97;;;2.33;;
78740;SDS011;68062;48.726;9.370;2023-12-20T07:30:55;1.60;;;1.50;;
78740;SDS011;68062;48.726;9.370;2023-12-20T07:33:24;3.13;;;1.57;;
78740;SDS011;68062;48.726;9.370;2023-12-20T07:35:52;2.67;;;2.50;;
78740;SDS011;68062;48.726;9.370;2023-12-20T07:38:20;4.43;;;3.10;;
78740;SDS011;68062;48.726;9.370;2023-12-20T07:40:49;4.70;;;2.57;;
78740;SDS011;68062;48.726;9.370;2023-12-20T07:43:17;4.63;;;2.90;;
78740;SDS011;68062;48.726;9.370;2023-12-20T07:45:46;6.43;;;3.73;;
78740;SDS011;68062;48.726;9.370;2023-12-20T07:48:14;4.67;;;3.60;;
78740;SDS011;68062;48.726;9.370;2023-12-20T07:50:42;4.40;;;3.90;;
78740;SDS011;68062;48.726;9.370;2023-12-20T07:53:10;4.10;;;2.73;;
78740;SDS011;68062;48.726;9.370;2023-12-20T07:55:38;3.03;;;2.20;;
78740;SDS011;68062;48.726;9.370;2023-12-20T07:58:06;1.57;;;1.53;;
78740;SDS011;68062;48.726;9.370;2023-12-20T08:00:34;2.40;;;1.63;;
78740;SDS011;68062;48.726;9.370;2023-12-20T08:03:04;1.80;;;1.70;;
78740;SDS011;68062;48.726;9.370;2023-12-20T08:05:32;2.97;;;2.00;;
78740;SDS011;68062;48.726;9.370;2023-12-20T08:08:00;2.40;;;2.00;;
78740;SDS011;68062;48.726;9.370;2023-12-20T08:10:28;2.40;;;2.20;;
78740;SDS011;68062;48.726;9.370;2023-12-20T08:12:56;2.77;;;2.57;;
78740;SDS011;68062;48.726;9.370;2023-12-20T08:15:24;3.67;;;2.70;;
78740;SDS011;68062;48.726;9.370;2023-12-20T08:17:52;2.67;;;2.43;;
78740;SDS011;68062;48.726;9.370;2023-12-20T08:20:22;3.87;;;2.90;;
78740;SDS011;68062;48.726;9.370;2023-12-20T08:23:05;5.67;;;3.00;;
78740;SDS011;68062;48.726;9.370;2023-12-20T08:25:33;3.57;;;2.90;;
78740;SDS011;68062;48.726;9.370;2023-12-20T08:28:01;3.30;;;2.80;;
78740;SDS011;68062;48.726;9.370;2023-12-20T08:30:31;6.90;;;2.90;;
78740;SDS011;68062;48.726;9.370;2023-12-20T08:32:59;5.20;;;3.10;;
78740;SDS011;68062;48.726;9.370;2023-12-20T08:35:29;5.10;;;3.00;;
78740;SDS011;68062;48.726;9.370;2023-12-20T08:37:57;6.20;;;3.07;;
78740;SDS011;68062;48.726;9.370;2023-12-20T08:40:26;5.80;;;3.60;;
78740;SDS011;68062;48.726;9.370;2023-12-20T08:42:54;5.40;;;3.30;;
78740;SDS011;68062;48.726;9.370;2023-12-20T08:45:23;4.23;;;3.13;;
78740;SDS011;68062;48.726;9.370;2023-12-20T08:47:51;3.50;;;2.63;;
78740;SDS011;68062;48.726;9.370;2023-12-20T08:50:19;4.03;;;2.70;;
78740;SDS011;68062;48.726;9.370;2023-12-20T08:52:48;3.20;;;2.90;;
78740;SDS011;68062;48.726;9.370;2023-12-20T08:55:16;3.90;;;2.50;;
78740;SDS011;68062;48.726;9.370;2023-12-20T08:57:46;4.10;;;2.87;;
78740;SDS011;68062;48.726;9.370;2023-12-20T09:00:14;2.43;;;2.23;;
78740;SDS011;68062;48.726;9.370;2023-12-20T09:02:43;5.20;;;2.87;;
78740;SDS011;68062;48.726;9.370;2023-12-20T09:05:11;3.10;;;2.60;;
78740;SDS011;68062;48.726;9.370;2023-12-20T09:07:39;3.40;;;3.03;;
78740;SDS011;68062;48.726;9.370;2023-12-20T09:10:08;2.90;;;2.30;;
78740;SDS011;68062;48.726;9.370;2023-12-20T09:12:36;5.43;;;3.30;;
78740;SDS011;68062;48.726;9.370;2023-12-20T09:15:07;5.20;;;4.20;;
78740;SDS011;68062;48.726;9.370;2023-12-20T09:17:36;5.10;;;4.13;;
78740;SDS011;68062;48.726;9.370;2023-12-20T09:20:04;6.50;;;3.67;;
78740;SDS011;68062;48.726;9.370;2023-12-20T09:22:35;3.50;;;3.40;;
78740;SDS011;68062;48.726;9.370;2023-12-20T09:25:05;3.90;;;3.67;;
78740;SDS011;68062;48.726;9.370;2023-12-20T09:27:35;3.43;;;3.27;;
78740;SDS011;68062;48.726;9.370;2023-12-20T09:30:04;3.67;;;3.10;;
78740;SDS011;68062;48.726;9.370;2023-12-20T09:32:33;7.77;;;3.23;;
78740;SDS011;68062;48.726;9.370;2023-12-20T09:35:01;4.10;;;3.40;;
78740;SDS011;68062;48.726;9.370;2023-12-20T09:37:30;3.57;;;2.70;;
78740;SDS011;68062;48.726;9.370;2023-12-20T09:39:59;4.60;;;3.57;;
78740;SDS011;68062;48.726;9.370;2023-12-20T09:42:29;4.13;;;3.30;;
78740;SDS011;68062;48.726;9.370;2023-12-20T09:45:07;2.77;;;2.47;;
78740;SDS011;68062;48.726;9.370;2023-12-20T09:47:36;4.53;;;3.70;;
78740;SDS011;68062;48.726;9.370;2023-12-20T09:50:05;5.87;;;2.90;;
78740;SDS011;68062;48.726;9.370;2023-12-20T09:52:34;3.40;;;2.43;;
78740;SDS011;68062;48.726;9.370;2023-12-20T09:55:04;7.77;;;4.60;;
78740;SDS011;68062;48.726;9.370;2023-12-20T09:57:36;7.00;;;5.07;;
78740;SDS011;68062;48.726;9.370;2023-12-20T10:00:05;3.47;;;3.30;;
78740;SDS011;68062;48.726;9.370;2023-12-20T10:02:37;3.80;;;3.13;;
78740;SDS011;68062;48.726;9.370;2023-12-20T10:05:09;4.97;;;3.03;;
78740;SDS011;68062;48.726;9.370;2023-12-20T10:07:46;3.07;;;2.13;;
78740;SDS011;68062;48.726;9.370;2023-12-20T10:10:15;4.80;;;2.20;;
78740;SDS011;68062;48.726;9.370;2023-12-20T10:12:44;4.40;;;2.53;;
78740;SDS011;68062;48.726;9.370;2023-12-20T10:15:29;4.97;;;2.30;;
78740;SDS011;68062;48.726;9.370;2023-12-20T10:17:57;3.93;;;1.80;;
78740;SDS011;68062;48.726;9.370;2023-12-20T10:20:28;5.37;;;1.80;;
78740;SDS011;68062;48.726;9.370;2023-12-20T10:22:56;9.97;;;2.77;;
78740;SDS011;68062;48.726;9.370;2023-12-20T10:25:25;3.30;;;1.53;;
78740;SDS011;68062;48.726;9.370;2023-12-20T10:28:09;3.37;;;2.30;;
78740;SDS011;68062;48.726;9.370;2023-12-20T10:30:39;4.00;;;2.33;;
78740;SDS011;68062;48.726;9.370;2023-12-20T10:33:09;5.50;;;2.27;;
78740;SDS011;68062;48.726;9.370;2023-12-20T10:35:38;2.93;;;1.73;;
78740;SDS011;68062;48.726;9.370;2023-12-20T10:38:12;2.87;;;1.60;;
78740;SDS011;68062;48.726;9.370;2023-12-20T10:40:41;1.60;;;1.50;;
78740;SDS011;68062;48.726;9.370;2023-12-20T10:43:11;5.20;;;2.40;;
78740;SDS011;68062;48.726;9.370;2023-12-20T10:45:41;3.43;;;1.37;;
78740;SDS011;68062;48.726;9.370;2023-12-20T10:48:09;2.57;;;1.70;;
78740;SDS011;68062;48.726;9.370;2023-12-20T10:50:39;2.33;;;1.70;;
78740;SDS011;68062;48.726;9.370;2023-12-20T10:53:09;4.10;;;1.40;;
78740;SDS011;68062;48.726;9.370;2023-12-20T10:55:39;5.00;;;1.50;;
78740;SDS011;68062;48.726;9.370;2023-12-20T10:58:07;3.73;;;1.73;;
78740;SDS011;68062;48.726;9.370;2023-12-20T11:00:39;5.13;;;2.80;;
78740;SDS011;68062;48.726;9.370;2023-12-20T11:03:09;4.03;;;2.03;;
78740;SDS011;68062;48.726;9.370;2023-12-20T11:05:38;3.20;;;2.10;;
78740;SDS011;68062;48.726;9.370;2023-12-20T11:08:17;4.23;;;2.60;;
78740;SDS011;68062;48.726;9.370;2023-12-20T11:10:51;4.47;;;1.90;;
78740;SDS011;68062;48.726;9.370;2023-12-20T11:13:26;8.20;;;2.30;;
78740;SDS011;68062;48.726;9.370;2023-12-20T11:16:00;2.27;;;1.77;;
78740;SDS011;68062;48.726;9.370;2023-12-20T11:18:29;2.80;;;2.03;;
78740;SDS011;68062;48.726;9.370;2023-12-20T11:21:00;5.80;;;2.30;;
78740;SDS011;68062;48.726;9.370;2023-12-20T11:23:34;4.83;;;2.57;;
78740;SDS011;68062;48.726;9.370;2023-12-20T11:26:03;4.73;;;2.23;;
78740;SDS011;68062;48.726;9.370;2023-12-20T11:28:30;7.10;;;2.30;;
78740;SDS011;68062;48.726;9.370;2023-12-20T11:31:00;11.40;;;6.10;;
78740;SDS011;68062;48.726;9.370;2023-12-20T11:33:31;10.63;;;2.60;;
78740;SDS011;68062;48.726;9.370;2023-12-20T11:36:12;5.63;;;2.80;;
78740;SDS011;68062;48.726;9.370;2023-12-20T11:38:49;7.43;;;3.80;;
78740;SDS011;68062;48.726;9.370;2023-12-20T11:41:22;7.67;;;2.37;;
78740;SDS011;68062;48.726;9.370;2023-12-20T11:43:51;4.30;;;2.50;;
78740;SDS011;68062;48.726;9.370;2023-12-20T11:46:22;3.20;;;2.00;;
78740;SDS011;68062;48.726;9.370;2023-12-20T11:48:50;4.93;;;2.40;;
78740;SDS011;68062;48.726;9.370;2023-12-20T11:51:19;3.83;;;2.50;;
78740;SDS011;68062;48.726;9.370;2023-12-20T11:53:51;6.80;;;3.50;;
78740;SDS011;68062;48.726;9.370;2023-12-20T11:56:19;6.87;;;2.77;;
78740;SDS011;68062;48.726;9.370;2023-12-20T11:58:47;2.60;;;1.70;;
78740;SDS011;68062;48.726;9.370;2023-12-20T12:01:17;3.60;;;2.80;;
78740;SDS011;68062;48.726;9.370;2023-12-20T12:03:49;7.57;;;1.87;;
78740;SDS011;68062;48.726;9.370;2023-12-20T12:06:30;5.80;;;2.63;;
78740;SDS011;68062;48.726;9.370;2023-12-20T12:08:59;5.23;;;2.07;;
78740;SDS011;68062;48.726;9.370;2023-12-20T12:11:27;4.67;;;3.27;;
78740;SDS011;68062;48.726;9.370;2023-12-20T12:13:55;5.03;;;1.90;;
78740;SDS011;68062;48.726;9.370;2023-12-20T12:16:23;7.30;;;2.70;;
78740;SDS011;68062;48.726;9.370;2023-12-20T12:18:57;5.77;;;3.57;;
78740;SDS011;68062;48.726;9.370;2023-12-20T12:21:26;6.30;;;2.70;;
78740;SDS011;68062;48.726;9.370;2023-12-20T12:24:06;5.93;;;3.47;;
78740;SDS011;68062;48.726;9.370;2023-12-20T12:26:34;6.40;;;2.97;;
78740;SDS011;68062;48.726;9.370;2023-12-20T12:29:02;9.70;;;5.00;;
78740;SDS011;68062;48.726;9.370;2023-12-20T12:31:30;4.80;;;2.80;;
78740;SDS011;68062;48.726;9.370;2023-12-20T12:33:59;5.33;;;2.80;;
78740;SDS011;68062;48.726;9.370;2023-12-20T12:36:29;7.63;;;2.47;;
78740;SDS011;68062;48.726;9.370;2023-12-20T12:38:58;7.67;;;2.77;;
78740;SDS011;68062;48.726;9.370;2023-12-20T12:41:25;5.40;;;2.07;;
78740;SDS011;68062;48.726;9.370;2023-12-20T12:43:53;5.80;;;2.20;;
78740;SDS011;68062;48.726;9.370;2023-12-20T12:46:26;6.40;;;4.17;;
78740;SDS011;68062;48.726;9.370;2023-12-20T12:48:55;3.57;;;2.50;;
78740;SDS011;68062;48.726;9.370;2023-12-20T12:51:24;3.50;;;1.97;;
78740;SDS011;68062;48.726;9.370;2023-12-20T12:53:52;3.37;;;2.03;;
78740;SDS011;68062;48.726;9.370;2023-12-20T12:56:20;3.20;;;2.13;;
78740;SDS011;68062;48.726;9.370;2023-12-20T12:58:52;4.70;;;2.83;;
78740;SDS011;68062;48.726;9.370;2023-12-20T13:01:21;3.27;;;1.83;;
78740;SDS011;68062;48.726;9.370;2023-12-20T13:03:49;6.00;;;2.43;;
78740;SDS011;68062;48.726;9.370;2023-12-20T13:06:17;4.67;;;2.70;;
78740;SDS011;68062;48.726;9.370;2023-12-20T13:08:47;3.90;;;2.00;;
78740;SDS011;68062;48.726;9.370;2023-12-20T13:11:15;6.40;;;1.97;;
78740;SDS011;68062;48.726;9.370;2023-12-20T13:13:42;3.67;;;2.20;;
78740;SDS011;68062;48.726;9.370;2023-12-20T13:16:11;5.67;;;3.00;;
78740;SDS011;68062;48.726;9.370;2023-12-20T13:18:39;3.67;;;1.93;;
78740;SDS011;68062;48.726;9.370;2023-12-20T13:21:09;6.77;;;2.80;;
78740;SDS011;68062;48.726;9.370;2023-12-20T13:23:38;2.47;;;1.77;;
78740;SDS011;68062;48.726;9.370;2023-12-20T13:26:08;4.90;;;2.20;;
78740;SDS011;68062;48.726;9.370;2023-12-20T13:28:36;4.70;;;2.00;;
78740;SDS011;68062;48.726;9.370;2023-12-20T13:31:04;3.23;;;1.93;;
78740;SDS011;68062;48.726;9.370;2023-12-20T13:33:32;1.97;;;1.87;;
78740;SDS011;68062;48.726;9.370;2023-12-20T13:36:00;5.93;;;2.80;;
78740;SDS011;68062;48.726;9.370;2023-12-20T13:38:32;4.63;;;1.97;;
78740;SDS011;68062;48.726;9.370;2023-12-20T13:40:59;8.23;;;2.73;;
78740;SDS011;68062;48.726;9.370;2023-12-20T13:43:28;4.60;;;2.40;;
78740;SDS011;68062;48.726;9.370;2023-12-20T13:45:56;4.90;;;2.50;;
78740;SDS011;68062;48.726;9.370;2023-12-20T13:48:24;7.07;;;2.13;;
78740;SDS011;68062;48.726;9.370;2023-12-20T13:50:52;4.70;;;2.03;;
78740;SDS011;68062;48.726;9.370;2023-12-20T13:53:21;5.77;;;2.40;;
78740;SDS011;68062;48.726;9.370;2023-12-20T13:55:49;10.83;;;2.73;;
78740;SDS011;68062;48.726;9.370;2023-12-20T13:58:17;6.13;;;2.27;;
78740;SDS011;68062;48.726;9.370;2023-12-20T14:00:48;6.33;;;1.83;;
78740;SDS011;68062;48.726;9.370;2023-12-20T14:03:16;4.70;;;1.53;;
78740;SDS011;68062;48.726;9.370;2023-12-20T14:05:44;5.40;;;3.30;;
78740;SDS011;68062;48.726;9.370;2023-12-20T14:08:12;7.17;;;3.07;;
78740;SDS011;68062;48.726;9.370;2023-12-20T14:10:40;3.60;;;2.60;;
78740;SDS011;68062;48.726;9.370;2023-12-20T14:13:09;4.97;;;3.73;;
78740;SDS011;68062;48.726;9.370;2023-12-20T14:15:37;3.20;;;2.63;;
78740;SDS011;68062;48.726;9.370;2023-12-20T14:18:06;7.20;;;2.20;;
78740;SDS011;68062;48.726;9.370;2023-12-20T14:20:35;7.83;;;3.00;;
78740;SDS011;68062;48.726;9.370;2023-12-20T14:23:06;9.17;;;4.43;;
78740;SDS011;68062;48.726;9.370;2023-12-20T14:25:33;4.83;;;3.13;;
78740;SDS011;68062;48.726;9.370;2023-12-20T14:28:17;4.53;;;1.90;;
78740;SDS011;68062;48.726;9.370;2023-12-20T14:30:45;5.93;;;2.00;;
78740;SDS011;68062;48.726;9.370;2023-12-20T14:33:17;5.70;;;1.60;;
78740;SDS011;68062;48.726;9.370;2023-12-20T14:35:48;2.47;;;1.67;;
78740;SDS011;68062;48.726;9.370;2023-12-20T14:38:16;5.03;;;2.07;;
78740;SDS011;68062;48.726;9.370;2023-12-20T14:40:44;3.13;;;1.70;;
78740;SDS011;68062;48.726;9.370;2023-12-20T14:43:12;2.17;;;1.53;;
78740;SDS011;68062;48.726;9.370;2023-12-20T14:45:40;7.40;;;2.03;;
78740;SDS011;68062;48.726;9.370;2023-12-20T14:48:08;4.63;;;1.53;;
78740;SDS011;68062;48.726;9.370;2023-12-20T14:50:37;4.30;;;2.10;;
78740;SDS011;68062;48.726;9.370;2023-12-20T14:53:07;5.93;;;2.13;;
78740;SDS011;68062;48.726;9.370;2023-12-20T14:55:35;6.23;;;1.80;;
78740;SDS011;68062;48.726;9.370;2023-12-20T14:58:04;3.40;;;1.80;;
78740;SDS011;68062;48.726;9.370;2023-12-20T15:00:32;2.00;;;1.90;;